Glenwood Springs, Colorado
Current Conditions -  °F | °C
As of 3:58 AM on Friday 31 Oct 2014 (Local Time) from K5SM Reporting Station
Clear Clear  
Wind Chill: 41°   Ceiling: Unl
Heat Index: 41°   Visibility: 10mi
Dew Point: 18°   Wind: 0mph
Humidity: 39%   Direction: NA
Pressure: 30.46"   Gusts: NA
Location:  39.55°N, 107.32°W
Report Text: K5SM 310958Z AUTO 00000KT 10SM CLR 05/M08 A3046 RMK AO2
Loading
Personal Weather Stations






























Interactive Weather Map
Tropical Storm Tracking
New forecast layout! Learn more

10-Day Weather Forecast

Advertisements
Track Severe Weather on mobile